sensor_id;sensor_type;location;lat;lon;timestamp;pressure;altitude;pressure_sealevel;temperature;humidity
14689;BME280;7432;48.728;9.154;2023-03-23T00:00:20;96021.22;;;12.29;59.83
14689;BME280;7432;48.728;9.154;2023-03-23T00:02:46;96021.41;;;12.28;60.63
14689;BME280;7432;48.728;9.154;2023-03-23T00:05:12;96029.34;;;12.26;60.46
14689;BME280;7432;48.728;9.154;2023-03-23T00:07:40;96029.59;;;12.31;61.26
14689;BME280;7432;48.728;9.154;2023-03-23T00:10:10;96019.88;;;12.33;62.75
14689;BME280;7432;48.728;9.154;2023-03-23T00:12:36;96022.91;;;12.37;61.81
14689;BME280;7432;48.728;9.154;2023-03-23T00:15:08;96029.22;;;12.34;62.45
14689;BME280;7432;48.728;9.154;2023-03-23T00:17:38;96018.25;;;12.32;61.54
14689;BME280;7432;48.728;9.154;2023-03-23T00:20:06;96018.91;;;12.34;61.14
14689;BME280;7432;48.728;9.154;2023-03-23T00:22:35;96018.91;;;12.34;61.51
14689;BME280;7432;48.728;9.154;2023-03-23T00:25:04;96018.09;;;12.34;62.50
14689;BME280;7432;48.728;9.154;2023-03-23T00:27:31;96009.75;;;12.32;62.73
14689;BME280;7432;48.728;9.154;2023-03-23T00:29:57;96007.31;;;12.30;62.60
14689;BME280;7432;48.728;9.154;2023-03-23T00:32:24;95993.38;;;12.25;61.56
14689;BME280;7432;48.728;9.154;2023-03-23T00:34:52;95999.13;;;12.27;61.23
14689;BME280;7432;48.728;9.154;2023-03-23T00:37:19;95996.38;;;12.28;59.66
14689;BME280;7432;48.728;9.154;2023-03-23T00:39:46;95996.31;;;12.22;59.95
14689;BME280;7432;48.728;9.154;2023-03-23T00:42:15;95998.00;;;12.29;59.31
14689;BME280;7432;48.728;9.154;2023-03-23T00:44:42;95991.38;;;12.27;59.48
14689;BME280;7432;48.728;9.154;2023-03-23T00:47:10;95992.56;;;12.24;59.63
14689;BME280;7432;48.728;9.154;2023-03-23T00:49:38;95984.66;;;12.26;59.80
14689;BME280;7432;48.728;9.154;2023-03-23T00:52:06;95970.75;;;12.27;59.41
14689;BME280;7432;48.728;9.154;2023-03-23T00:54:33;95978.69;;;12.25;59.35
14689;BME280;7432;48.728;9.154;2023-03-23T00:57:00;95963.00;;;12.27;59.81
14689;BME280;7432;48.728;9.154;2023-03-23T00:59:28;95965.97;;;12.24;59.73
14689;BME280;7432;48.728;9.154;2023-03-23T01:01:54;95965.69;;;12.19;59.99
14689;BME280;7432;48.728;9.154;2023-03-23T01:04:20;95975.41;;;12.17;59.53
14689;BME280;7432;48.728;9.154;2023-03-23T01:06:49;95972.09;;;12.23;59.41
14689;BME280;7432;48.728;9.154;2023-03-23T01:09:17;95962.94;;;12.20;59.80
14689;BME280;7432;48.728;9.154;2023-03-23T01:11:47;95971.19;;;12.30;59.00
14689;BME280;7432;48.728;9.154;2023-03-23T01:14:15;95968.97;;;12.27;59.52
14689;BME280;7432;48.728;9.154;2023-03-23T01:16:43;95964.44;;;12.29;59.48
14689;BME280;7432;48.728;9.154;2023-03-23T01:19:10;95964.78;;;12.26;59.48
14689;BME280;7432;48.728;9.154;2023-03-23T01:21:36;95950.59;;;12.16;59.89
14689;BME280;7432;48.728;9.154;2023-03-23T01:24:03;95969.31;;;12.24;59.44
14689;BME280;7432;48.728;9.154;2023-03-23T01:26:30;95959.75;;;12.18;59.49
14689;BME280;7432;48.728;9.154;2023-03-23T01:28:56;95957.16;;;12.18;59.65
14689;BME280;7432;48.728;9.154;2023-03-23T01:31:24;95947.81;;;12.17;59.60
14689;BME280;7432;48.728;9.154;2023-03-23T01:33:53;95917.06;;;12.01;59.30
14689;BME280;7432;48.728;9.154;2023-03-23T01:36:22;95941.50;;;12.20;59.54
14689;BME280;7432;48.728;9.154;2023-03-23T01:38:49;95935.97;;;12.23;59.49
14689;BME280;7432;48.728;9.154;2023-03-23T01:41:17;95929.63;;;12.25;60.02
14689;BME280;7432;48.728;9.154;2023-03-23T01:43:54;95928.00;;;12.24;59.82
14689;BME280;7432;48.728;9.154;2023-03-23T01:46:21;95921.19;;;12.17;59.74
14689;BME280;7432;48.728;9.154;2023-03-23T01:48:48;95924.16;;;12.14;59.62
14689;BME280;7432;48.728;9.154;2023-03-23T01:51:18;95914.88;;;12.19;60.21
14689;BME280;7432;48.728;9.154;2023-03-23T01:53:47;95915.88;;;12.18;60.16
14689;BME280;7432;48.728;9.154;2023-03-23T01:56:16;95917.28;;;12.21;59.17
14689;BME280;7432;48.728;9.154;2023-03-23T01:58:46;95916.91;;;12.24;59.46
14689;BME280;7432;48.728;9.154;2023-03-23T02:01:15;95920.63;;;12.21;59.18
14689;BME280;7432;48.728;9.154;2023-03-23T02:03:44;95917.69;;;12.24;59.70
14689;BME280;7432;48.728;9.154;2023-03-23T02:06:13;95927.25;;;12.24;59.28
14689;BME280;7432;48.728;9.154;2023-03-23T02:08:41;95929.03;;;12.23;59.33
14689;BME280;7432;48.728;9.154;2023-03-23T02:11:13;95922.09;;;12.24;59.72
14689;BME280;7432;48.728;9.154;2023-03-23T02:13:40;95913.53;;;12.23;59.82
14689;BME280;7432;48.728;9.154;2023-03-23T02:16:10;95923.84;;;12.23;59.78
14689;BME280;7432;48.728;9.154;2023-03-23T02:18:51;95926.84;;;12.27;60.09
14689;BME280;7432;48.728;9.154;2023-03-23T02:24:56;95928.81;;;12.25;60.32
14689;BME280;7432;48.728;9.154;2023-03-23T02:27:40;95917.41;;;12.34;59.77
14689;BME280;7432;48.728;9.154;2023-03-23T02:30:33;95915.63;;;12.34;59.51
14689;BME280;7432;48.728;9.154;2023-03-23T02:36:19;95911.00;;;12.30;61.15
14689;BME280;7432;48.728;9.154;2023-03-23T02:38:53;95901.09;;;12.33;60.31
14689;BME280;7432;48.728;9.154;2023-03-23T02:41:24;95893.72;;;12.30;61.13
14689;BME280;7432;48.728;9.154;2023-03-23T02:43:52;95882.97;;;12.27;61.13
14689;BME280;7432;48.728;9.154;2023-03-23T02:46:20;95876.22;;;12.26;61.35
14689;BME280;7432;48.728;9.154;2023-03-23T02:48:50;95862.50;;;12.25;62.33
14689;BME280;7432;48.728;9.154;2023-03-23T02:51:19;95871.59;;;12.21;62.17
14689;BME280;7432;48.728;9.154;2023-03-23T02:53:47;95875.53;;;12.17;62.23
14689;BME280;7432;48.728;9.154;2023-03-23T02:56:17;95872.72;;;12.12;62.29
14689;BME280;7432;48.728;9.154;2023-03-23T02:58:44;95869.34;;;12.12;62.58
14689;BME280;7432;48.728;9.154;2023-03-23T03:03:59;95875.84;;;12.08;62.73
14689;BME280;7432;48.728;9.154;2023-03-23T03:06:33;95830.94;;;11.81;62.36
14689;BME280;7432;48.728;9.154;2023-03-23T03:09:05;95861.72;;;12.04;62.74
14689;BME280;7432;48.728;9.154;2023-03-23T03:11:34;95857.16;;;12.06;62.12
14689;BME280;7432;48.728;9.154;2023-03-23T03:14:04;95863.72;;;12.08;61.94
14689;BME280;7432;48.728;9.154;2023-03-23T03:16:35;95858.22;;;12.11;62.20
14689;BME280;7432;48.728;9.154;2023-03-23T03:19:07;95853.84;;;12.12;62.32
14689;BME280;7432;48.728;9.154;2023-03-23T03:21:40;95851.34;;;12.18;61.35
14689;BME280;7432;48.728;9.154;2023-03-23T03:24:10;95859.25;;;12.17;61.24
14689;BME280;7432;48.728;9.154;2023-03-23T03:26:41;95870.19;;;12.19;61.15
14689;BME280;7432;48.728;9.154;2023-03-23T03:29:13;95860.66;;;12.19;61.59
14689;BME280;7432;48.728;9.154;2023-03-23T03:31:41;95860.28;;;12.22;61.23
14689;BME280;7432;48.728;9.154;2023-03-23T03:34:10;95856.53;;;12.25;61.27
14689;BME280;7432;48.728;9.154;2023-03-23T03:36:39;95853.00;;;12.26;60.71
14689;BME280;7432;48.728;9.154;2023-03-23T03:39:08;95860.78;;;12.32;60.67
14689;BME280;7432;48.728;9.154;2023-03-23T03:41:36;95862.31;;;12.27;61.18
14689;BME280;7432;48.728;9.154;2023-03-23T03:44:03;95839.03;;;12.20;60.94
14689;BME280;7432;48.728;9.154;2023-03-23T03:46:30;95858.31;;;12.24;62.13
14689;BME280;7432;48.728;9.154;2023-03-23T03:48:57;95845.13;;;12.13;61.81
14689;BME280;7432;48.728;9.154;2023-03-23T03:51:24;95857.78;;;12.29;61.36
14689;BME280;7432;48.728;9.154;2023-03-23T03:53:52;95854.63;;;12.33;61.34
14689;BME280;7432;48.728;9.154;2023-03-23T03:56:19;95852.41;;;12.30;61.34
14689;BME280;7432;48.728;9.154;2023-03-23T03:58:47;95835.94;;;12.31;61.61
14689;BME280;7432;48.728;9.154;2023-03-23T04:01:13;95848.06;;;12.31;61.24
14689;BME280;7432;48.728;9.154;2023-03-23T04:03:40;95843.13;;;12.36;61.14
14689;BME280;7432;48.728;9.154;2023-03-23T04:06:07;95847.31;;;12.37;61.55
14689;BME280;7432;48.728;9.154;2023-03-23T04:08:35;95838.56;;;12.38;61.54
14689;BME280;7432;48.728;9.154;2023-03-23T04:11:04;95844.25;;;12.27;62.72
14689;BME280;7432;48.728;9.154;2023-03-23T04:13:31;95849.97;;;12.22;62.11
14689;BME280;7432;48.728;9.154;2023-03-23T04:15:57;95844.66;;;12.30;62.01
14689;BME280;7432;48.728;9.154;2023-03-23T04:18:23;95852.03;;;12.33;62.51
14689;BME280;7432;48.728;9.154;2023-03-23T04:20:50;95856.78;;;12.30;62.93
14689;BME280;7432;48.728;9.154;2023-03-23T04:23:18;95840.63;;;12.21;62.22
14689;BME280;7432;48.728;9.154;2023-03-23T04:25:45;95855.59;;;12.32;62.21
14689;BME280;7432;48.728;9.154;2023-03-23T04:28:13;95853.81;;;12.33;63.27
14689;BME280;7432;48.728;9.154;2023-03-23T04:30:42;95859.78;;;12.33;64.09
14689;BME280;7432;48.728;9.154;2023-03-23T04:33:09;95860.00;;;12.32;64.21
14689;BME280;7432;48.728;9.154;2023-03-23T04:35:40;95853.81;;;12.33;64.50
14689;BME280;7432;48.728;9.154;2023-03-23T04:38:06;95857.81;;;12.35;64.85
14689;BME280;7432;48.728;9.154;2023-03-23T04:40:35;95858.38;;;12.31;65.45
14689;BME280;7432;48.728;9.154;2023-03-23T04:43:02;95852.41;;;12.30;65.40
14689;BME280;7432;48.728;9.154;2023-03-23T04:45:32;95851.81;;;12.28;64.89
14689;BME280;7432;48.728;9.154;2023-03-23T04:47:59;95850.41;;;12.26;64.12
14689;BME280;7432;48.728;9.154;2023-03-23T04:50:28;95848.66;;;12.33;64.94
14689;BME280;7432;48.728;9.154;2023-03-23T04:52:56;95845.09;;;12.34;63.58
14689;BME280;7432;48.728;9.154;2023-03-23T04:55:24;95856.25;;;12.34;64.02
14689;BME280;7432;48.728;9.154;2023-03-23T04:57:51;95850.44;;;12.32;64.25
14689;BME280;7432;48.728;9.154;2023-03-23T05:00:18;95853.88;;;12.39;63.74
14689;BME280;7432;48.728;9.154;2023-03-23T05:02:47;95852.47;;;12.37;64.00
14689;BME280;7432;48.728;9.154;2023-03-23T05:05:17;95858.81;;;12.34;64.70
14689;BME280;7432;48.728;9.154;2023-03-23T05:07:44;95854.44;;;12.35;64.41
14689;BME280;7432;48.728;9.154;2023-03-23T05:10:12;95848.19;;;12.23;64.43
14689;BME280;7432;48.728;9.154;2023-03-23T05:12:39;95858.81;;;12.34;63.46
14689;BME280;7432;48.728;9.154;2023-03-23T05:15:06;95857.66;;;12.37;64.22
14689;BME280;7432;48.728;9.154;2023-03-23T05:17:33;95853.44;;;12.36;64.20
14689;BME280;7432;48.728;9.154;2023-03-23T05:20:04;95846.50;;;12.36;63.86
14689;BME280;7432;48.728;9.154;2023-03-23T05:22:33;95840.78;;;12.41;63.21
14689;BME280;7432;48.728;9.154;2023-03-23T05:25:01;95851.09;;;12.41;63.17
14689;BME280;7432;48.728;9.154;2023-03-23T05:27:28;95842.44;;;12.48;62.69
14689;BME280;7432;48.728;9.154;2023-03-23T05:29:55;95841.81;;;12.46;62.75
14689;BME280;7432;48.728;9.154;2023-03-23T05:32:23;95823.22;;;12.30;63.07
14689;BME280;7432;48.728;9.154;2023-03-23T05:34:54;95847.78;;;12.47;63.09
14689;BME280;7432;48.728;9.154;2023-03-23T05:37:21;95850.00;;;12.50;63.16
14689;BME280;7432;48.728;9.154;2023-03-23T05:39:48;95846.81;;;12.48;63.11
14689;BME280;7432;48.728;9.154;2023-03-23T05:42:18;95844.84;;;12.50;62.90
14689;BME280;7432;48.728;9.154;2023-03-23T05:44:44;95846.66;;;12.56;62.75
14689;BME280;7432;48.728;9.154;2023-03-23T05:47:11;95841.31;;;12.58;63.00
14689;BME280;7432;48.728;9.154;2023-03-23T05:49:38;95847.69;;;12.62;62.54
14689;BME280;7432;48.728;9.154;2023-03-23T05:52:04;95842.38;;;12.70;62.08
14689;BME280;7432;48.728;9.154;2023-03-23T05:54:32;95842.38;;;12.70;61.98
14689;BME280;7432;48.728;9.154;2023-03-23T05:56:59;95856.34;;;12.75;61.87
14689;BME280;7432;48.728;9.154;2023-03-23T05:59:25;95850.00;;;12.78;62.25
14689;BME280;7432;48.728;9.154;2023-03-23T06:01:52;95866.94;;;12.87;61.36
14689;BME280;7432;48.728;9.154;2023-03-23T06:04:20;95859.44;;;12.98;62.06
14689;BME280;7432;48.728;9.154;2023-03-23T06:06:50;95861.28;;;13.04;61.77
14689;BME280;7432;48.728;9.154;2023-03-23T06:09:16;95862.47;;;13.02;61.11
14689;BME280;7432;48.728;9.154;2023-03-23T06:11:44;95875.19;;;13.03;61.09
14689;BME280;7432;48.728;9.154;2023-03-23T06:14:12;95877.09;;;13.16;61.10
14689;BME280;7432;48.728;9.154;2023-03-23T06:16:39;95886.25;;;13.19;60.68
14689;BME280;7432;48.728;9.154;2023-03-23T06:19:05;95882.25;;;13.16;61.87
14689;BME280;7432;48.728;9.154;2023-03-23T06:21:32;95882.03;;;13.11;61.26
14689;BME280;7432;48.728;9.154;2023-03-23T06:23:58;95887.81;;;13.20;60.02
14689;BME280;7432;48.728;9.154;2023-03-23T06:26:28;95893.41;;;13.23;60.51
14689;BME280;7432;48.728;9.154;2023-03-23T06:28:57;95892.63;;;13.23;60.83
14689;BME280;7432;48.728;9.154;2023-03-23T06:31:24;95894.75;;;13.13;60.58
14689;BME280;7432;48.728;9.154;2023-03-23T06:33:52;95894.00;;;13.19;60.87
14689;BME280;7432;48.728;9.154;2023-03-23T06:36:18;95904.13;;;13.14;60.87
14689;BME280;7432;48.728;9.154;2023-03-23T06:38:45;95900.97;;;13.18;60.88
14689;BME280;7432;48.728;9.154;2023-03-23T06:41:13;95899.34;;;13.17;60.93
14689;BME280;7432;48.728;9.154;2023-03-23T06:43:39;95909.47;;;13.12;60.71
14689;BME280;7432;48.728;9.154;2023-03-23T06:46:07;95902.09;;;13.09;61.62
14689;BME280;7432;48.728;9.154;2023-03-23T06:48:34;95915.22;;;13.07;61.55
14689;BME280;7432;48.728;9.154;2023-03-23T06:51:01;95903.91;;;13.15;60.93
14689;BME280;7432;48.728;9.154;2023-03-23T06:53:28;95913.72;;;13.26;60.21
14689;BME280;7432;48.728;9.154;2023-03-23T06:55:55;95887.34;;;13.37;60.01
14689;BME280;7432;48.728;9.154;2023-03-23T06:58:22;95909.38;;;13.74;59.04
14689;BME280;7432;48.728;9.154;2023-03-23T07:00:53;95899.63;;;13.83;58.81
14689;BME280;7432;48.728;9.154;2023-03-23T07:03:21;95924.22;;;14.13;58.08
14689;BME280;7432;48.728;9.154;2023-03-23T07:05:48;95924.03;;;14.21;57.61
14689;BME280;7432;48.728;9.154;2023-03-23T07:08:15;95921.25;;;14.29;57.91
14689;BME280;7432;48.728;9.154;2023-03-23T07:10:41;95925.63;;;14.22;56.87
14689;BME280;7432;48.728;9.154;2023-03-23T07:13:08;95925.03;;;14.20;57.66
14689;BME280;7432;48.728;9.154;2023-03-23T07:15:35;95924.03;;;14.21;57.08
14689;BME280;7432;48.728;9.154;2023-03-23T07:18:02;95921.44;;;14.14;57.18
14689;BME280;7432;48.728;9.154;2023-03-23T07:20:30;95928.19;;;14.15;56.84
14689;BME280;7432;48.728;9.154;2023-03-23T07:22:56;95931.19;;;14.06;57.50
14689;BME280;7432;48.728;9.154;2023-03-23T07:25:23;95934.75;;;14.05;58.07
14689;BME280;7432;48.728;9.154;2023-03-23T07:27:49;95940.50;;;13.94;58.25
14689;BME280;7432;48.728;9.154;2023-03-23T07:30:15;95947.69;;;13.98;57.91
14689;BME280;7432;48.728;9.154;2023-03-23T07:32:42;95950.25;;;13.92;57.86
14689;BME280;7432;48.728;9.154;2023-03-23T07:35:09;95954.81;;;13.90;57.95
14689;BME280;7432;48.728;9.154;2023-03-23T07:37:37;95952.81;;;13.85;57.57
14689;BME280;7432;48.728;9.154;2023-03-23T07:40:04;95945.03;;;13.79;58.54
14689;BME280;7432;48.728;9.154;2023-03-23T07:42:39;95965.59;;;14.00;58.70
14689;BME280;7432;48.728;9.154;2023-03-23T07:45:07;95964.41;;;14.02;58.07
14689;BME280;7432;48.728;9.154;2023-03-23T07:47:33;95964.06;;;14.12;57.83
14689;BME280;7432;48.728;9.154;2023-03-23T07:50:00;95968.66;;;14.16;58.34
14689;BME280;7432;48.728;9.154;2023-03-23T07:52:26;95966.75;;;14.32;57.21
14689;BME280;7432;48.728;9.154;2023-03-23T07:54:54;95960.59;;;14.52;56.57
14689;BME280;7432;48.728;9.154;2023-03-23T07:57:21;95964.78;;;14.73;56.36
14689;BME280;7432;48.728;9.154;2023-03-23T07:59:47;95970.78;;;14.93;56.09
14689;BME280;7432;48.728;9.154;2023-03-23T08:02:14;95976.38;;;14.97;55.92
14689;BME280;7432;48.728;9.154;2023-03-23T08:04:40;95978.34;;;15.14;55.25
14689;BME280;7432;48.728;9.154;2023-03-23T08:07:07;95972.78;;;15.17;55.96
14689;BME280;7432;48.728;9.154;2023-03-23T08:09:37;95977.34;;;15.28;55.74
14689;BME280;7432;48.728;9.154;2023-03-23T08:12:05;95984.69;;;15.44;55.52
14689;BME280;7432;48.728;9.154;2023-03-23T08:14:31;95991.50;;;15.59;55.32
14689;BME280;7432;48.728;9.154;2023-03-23T08:16:58;95994.09;;;15.59;55.76
14689;BME280;7432;48.728;9.154;2023-03-23T08:19:25;95997.50;;;15.59;55.12
14689;BME280;7432;48.728;9.154;2023-03-23T08:21:52;95992.66;;;15.69;54.91
14689;BME280;7432;48.728;9.154;2023-03-23T08:24:19;95995.66;;;15.66;54.93
14689;BME280;7432;48.728;9.154;2023-03-23T08:26:45;95990.00;;;15.95;54.02
14689;BME280;7432;48.728;9.154;2023-03-23T08:29:13;95988.84;;;16.29;54.42
14689;BME280;7432;48.728;9.154;2023-03-23T08:31:39;95995.25;;;16.65;53.28
14689;BME280;7432;48.728;9.154;2023-03-23T08:34:06;95996.47;;;16.62;53.55
14689;BME280;7432;48.728;9.154;2023-03-23T08:36:33;95996.22;;;16.70;53.29
14689;BME280;7432;48.728;9.154;2023-03-23T08:39:00;96001.09;;;16.60;53.57
14689;BME280;7432;48.728;9.154;2023-03-23T08:41:27;95994.63;;;16.31;54.59
14689;BME280;7432;48.728;9.154;2023-03-23T08:43:53;96009.91;;;16.15;55.85
14689;BME280;7432;48.728;9.154;2023-03-23T08:46:21;96012.53;;;16.01;55.87
14689;BME280;7432;48.728;9.154;2023-03-23T08:48:48;96008.53;;;16.06;55.89
14689;BME280;7432;48.728;9.154;2023-03-23T08:51:14;96009.94;;;16.01;55.72
14689;BME280;7432;48.728;9.154;2023-03-23T08:53:41;96007.19;;;15.90;56.43
14689;BME280;7432;48.728;9.154;2023-03-23T08:56:10;96019.78;;;15.80;56.57
14689;BME280;7432;48.728;9.154;2023-03-23T08:58:38;96024.41;;;15.71;57.26
14689;BME280;7432;48.728;9.154;2023-03-23T09:01:06;96027.41;;;15.75;57.22
14689;BME280;7432;48.728;9.154;2023-03-23T09:03:34;96019.22;;;15.84;56.94
14689;BME280;7432;48.728;9.154;2023-03-23T09:06:02;96030.34;;;15.91;56.63
14689;BME280;7432;48.728;9.154;2023-03-23T09:08:29;96025.16;;;15.98;56.55
14689;BME280;7432;48.728;9.154;2023-03-23T09:10:58;95998.56;;;15.96;57.69
14689;BME280;7432;48.728;9.154;2023-03-23T09:13:25;96024.66;;;16.21;56.23
14689;BME280;7432;48.728;9.154;2023-03-23T09:15:51;96033.91;;;16.48;55.80
14689;BME280;7432;48.728;9.154;2023-03-23T09:18:18;96031.22;;;16.74;55.13
14689;BME280;7432;48.728;9.154;2023-03-23T09:20:49;96033.34;;;16.84;54.44
14689;BME280;7432;48.728;9.154;2023-03-23T09:23:16;96035.50;;;16.93;54.15
14689;BME280;7432;48.728;9.154;2023-03-23T09:25:43;96039.53;;;17.39;53.46
14689;BME280;7432;48.728;9.154;2023-03-23T09:28:09;96039.50;;;17.45;52.92
14689;BME280;7432;48.728;9.154;2023-03-23T09:30:39;96047.22;;;17.58;52.88
14689;BME280;7432;48.728;9.154;2023-03-23T09:33:06;96047.38;;;17.63;52.88
14689;BME280;7432;48.728;9.154;2023-03-23T09:35:34;96051.56;;;17.64;52.74
14689;BME280;7432;48.728;9.154;2023-03-23T09:38:04;96050.34;;;17.67;52.09
14689;BME280;7432;48.728;9.154;2023-03-23T09:40:35;96044.63;;;17.02;53.33
14689;BME280;7432;48.728;9.154;2023-03-23T09:43:25;96049.78;;;16.78;54.18
14689;BME280;7432;48.728;9.154;2023-03-23T09:46:00;96067.16;;;16.39;55.46
14689;BME280;7432;48.728;9.154;2023-03-23T09:48:35;96062.00;;;16.26;55.90
14689;BME280;7432;48.728;9.154;2023-03-23T09:51:09;96054.66;;;16.17;55.59
14689;BME280;7432;48.728;9.154;2023-03-23T09:53:41;96047.44;;;16.25;56.10
14689;BME280;7432;48.728;9.154;2023-03-23T09:56:11;96053.41;;;16.32;55.79
14689;BME280;7432;48.728;9.154;2023-03-23T09:58:45;96055.34;;;16.43;55.63
14689;BME280;7432;48.728;9.154;2023-03-23T10:01:16;96061.53;;;16.49;55.30
14689;BME280;7432;48.728;9.154;2023-03-23T10:03:45;96060.25;;;16.65;56.17
14689;BME280;7432;48.728;9.154;2023-03-23T10:06:13;96050.50;;;16.91;54.81
14689;BME280;7432;48.728;9.154;2023-03-23T10:08:49;96059.97;;;17.10;54.39
14689;BME280;7432;48.728;9.154;2023-03-23T10:11:23;96068.47;;;17.49;53.19
14689;BME280;7432;48.728;9.154;2023-03-23T10:14:07;96062.53;;;17.73;52.52
14689;BME280;7432;48.728;9.154;2023-03-23T10:16:38;96067.72;;;18.09;52.84
14689;BME280;7432;48.728;9.154;2023-03-23T10:19:11;96064.78;;;18.60;50.63
14689;BME280;7432;48.728;9.154;2023-03-23T10:21:41;96072.38;;;18.62;50.80
14689;BME280;7432;48.728;9.154;2023-03-23T10:24:15;96069.97;;;18.42;50.06
14689;BME280;7432;48.728;9.154;2023-03-23T10:26:48;96072.81;;;18.59;50.67
14689;BME280;7432;48.728;9.154;2023-03-23T10:29:21;96082.38;;;18.94;50.11
14689;BME280;7432;48.728;9.154;2023-03-23T10:31:53;96084.97;;;18.94;50.05
14689;BME280;7432;48.728;9.154;2023-03-23T10:34:30;96081.19;;;18.61;51.30
14689;BME280;7432;48.728;9.154;2023-03-23T10:37:02;96088.09;;;18.37;51.67
14689;BME280;7432;48.728;9.154;2023-03-23T10:39:39;96075.13;;;18.30;52.38
14689;BME280;7432;48.728;9.154;2023-03-23T10:42:08;96077.88;;;18.17;51.67
14689;BME280;7432;48.728;9.154;2023-03-23T10:44:35;96082.13;;;17.94;52.42
14689;BME280;7432;48.728;9.154;2023-03-23T10:47:03;96080.75;;;18.09;52.61
14689;BME280;7432;48.728;9.154;2023-03-23T10:49:34;96086.94;;;18.33;52.55
14689;BME280;7432;48.728;9.154;2023-03-23T10:52:09;96085.19;;;18.63;51.81
14689;BME280;7432;48.728;9.154;2023-03-23T10:54:46;96071.25;;;18.99;50.21
14689;BME280;7432;48.728;9.154;2023-03-23T10:57:21;96081.03;;;19.45;49.14
14689;BME280;7432;48.728;9.154;2023-03-23T10:59:48;96088.31;;;19.55;49.37
14689;BME280;7432;48.728;9.154;2023-03-23T11:02:17;96086.41;;;19.62;49.48
14689;BME280;7432;48.728;9.154;2023-03-23T11:04:56;96069.84;;;19.26;49.78
14689;BME280;7432;48.728;9.154;2023-03-23T11:07:27;96074.91;;;19.51;49.11
14689;BME280;7432;48.728;9.154;2023-03-23T11:09:57;96069.19;;;19.31;50.46
14689;BME280;7432;48.728;9.154;2023-03-23T11:12:24;96066.34;;;19.32;49.99
14689;BME280;7432;48.728;9.154;2023-03-23T11:14:51;96078.44;;;19.04;50.59
14689;BME280;7432;48.728;9.154;2023-03-23T11:17:22;96077.13;;;18.94;50.84
14689;BME280;7432;48.728;9.154;2023-03-23T11:19:50;96068.31;;;18.66;51.32
14689;BME280;7432;48.728;9.154;2023-03-23T11:22:21;96076.09;;;18.54;51.31
14689;BME280;7432;48.728;9.154;2023-03-23T11:24:53;96071.56;;;18.43;51.90
14689;BME280;7432;48.728;9.154;2023-03-23T11:27:22;96078.31;;;18.32;52.52
14689;BME280;7432;48.728;9.154;2023-03-23T11:29:51;96064.84;;;18.17;52.90
14689;BME280;7432;48.728;9.154;2023-03-23T11:32:18;96075.56;;;17.91;54.22
14689;BME280;7432;48.728;9.154;2023-03-23T11:34:47;96067.78;;;17.85;54.83
14689;BME280;7432;48.728;9.154;2023-03-23T11:37:18;96057.59;;;18.01;56.49
14689;BME280;7432;48.728;9.154;2023-03-23T11:39:48;96057.47;;;18.32;55.64
14689;BME280;7432;48.728;9.154;2023-03-23T11:42:19;96053.22;;;18.68;56.85
14689;BME280;7432;48.728;9.154;2023-03-23T11:44:47;96049.91;;;18.90;53.92
14689;BME280;7432;48.728;9.154;2023-03-23T11:47:20;96052.22;;;19.10;52.51
14689;BME280;7432;48.728;9.154;2023-03-23T11:49:54;96053.56;;;19.42;50.69
14689;BME280;7432;48.728;9.154;2023-03-23T11:52:26;96057.41;;;19.40;51.14
14689;BME280;7432;48.728;9.154;2023-03-23T11:55:00;96060.91;;;19.34;50.46
14689;BME280;7432;48.728;9.154;2023-03-23T11:57:30;96056.34;;;19.29;48.70
14689;BME280;7432;48.728;9.154;2023-03-23T11:59:58;96060.13;;;19.57;49.90
14689;BME280;7432;48.728;9.154;2023-03-23T12:05:47;96056.19;;;19.66;49.72
14689;BME280;7432;48.728;9.154;2023-03-23T12:08:28;96050.38;;;19.40;48.59
14689;BME280;7432;48.728;9.154;2023-03-23T12:11:02;96024.63;;;19.03;49.11
14689;BME280;7432;48.728;9.154;2023-03-23T12:13:48;96052.47;;;19.20;49.64
14689;BME280;7432;48.728;9.154;2023-03-23T12:16:32;96050.34;;;18.87;48.70
14689;BME280;7432;48.728;9.154;2023-03-23T12:19:09;96037.03;;;18.77;49.09
14689;BME280;7432;48.728;9.154;2023-03-23T12:21:43;96043.03;;;18.48;48.78
14689;BME280;7432;48.728;9.154;2023-03-23T12:24:20;96046.38;;;18.19;49.59
14689;BME280;7432;48.728;9.154;2023-03-23T12:26:55;96042.81;;;18.31;49.56
14689;BME280;7432;48.728;9.154;2023-03-23T12:29:41;96049.00;;;18.19;50.39
14689;BME280;7432;48.728;9.154;2023-03-23T12:32:37;96045.78;;;18.17;50.22
14689;BME280;7432;48.728;9.154;2023-03-23T12:35:14;96046.25;;;18.14;50.71
14689;BME280;7432;48.728;9.154;2023-03-23T12:37:57;96036.69;;;18.08;50.55
14689;BME280;7432;48.728;9.154;2023-03-23T12:40:37;96042.75;;;18.02;50.81
14689;BME280;7432;48.728;9.154;2023-03-23T12:43:15;96039.06;;;18.09;51.11
14689;BME280;7432;48.728;9.154;2023-03-23T12:45:53;96031.69;;;18.24;50.67
14689;BME280;7432;48.728;9.154;2023-03-23T12:48:24;96015.72;;;18.51;51.03
14689;BME280;7432;48.728;9.154;2023-03-23T12:51:07;96024.47;;;18.86;49.50
14689;BME280;7432;48.728;9.154;2023-03-23T12:53:38;96031.78;;;18.96;49.34
14689;BME280;7432;48.728;9.154;2023-03-23T12:56:16;96033.34;;;18.97;48.98
14689;BME280;7432;48.728;9.154;2023-03-23T12:58:45;96035.81;;;18.91;48.90
14689;BME280;7432;48.728;9.154;2023-03-23T13:01:14;96031.78;;;18.96;48.85
14689;BME280;7432;48.728;9.154;2023-03-23T13:03:51;96027.22;;;18.61;49.18
14689;BME280;7432;48.728;9.154;2023-03-23T13:06:22;96024.78;;;18.48;50.08
14689;BME280;7432;48.728;9.154;2023-03-23T13:08:54;96016.47;;;18.58;49.93
14689;BME280;7432;48.728;9.154;2023-03-23T13:11:27;96020.69;;;18.70;50.46
14689;BME280;7432;48.728;9.154;2023-03-23T13:13:56;96011.56;;;18.61;50.01
14689;BME280;7432;48.728;9.154;2023-03-23T13:16:31;96006.34;;;18.61;49.51
14689;BME280;7432;48.728;9.154;2023-03-23T13:19:08;96000.56;;;18.59;50.68
14689;BME280;7432;48.728;9.154;2023-03-23T13:21:41;95996.97;;;18.72;49.86
14689;BME280;7432;48.728;9.154;2023-03-23T13:24:13;95993.59;;;18.83;49.07
14689;BME280;7432;48.728;9.154;2023-03-23T13:26:41;95999.84;;;18.93;49.55
14689;BME280;7432;48.728;9.154;2023-03-23T13:29:12;95992.59;;;18.84;49.58
14689;BME280;7432;48.728;9.154;2023-03-23T13:31:40;95988.25;;;18.78;49.29
14689;BME280;7432;48.728;9.154;2023-03-23T13:34:16;95991.09;;;18.88;49.28